Seabulk Arctic — WCY7054 — position and weather

sailwx.info

Track history (hours):
 
Tides and Currents Weather Stations Pressure Air Temp Water Temp Dewpoint Dewpoint Depression Visibility Wind Speed Wind Dir Waves Ship Positions

Seabulk Arctic

More information available from US FCC via Universal Licensing System and Coast Guard Vessel Documentation Center.

Last reported at 2014-Aug-26 12:00 UTC. Time now 2014-Aug-28 07:25 UTC.
Position N 26°24' W 085°12'.

Type: Tanker. MMSI: 366826000.

Wind from 060 at 20 knots

Waves 2.5 meters (8 feet), 8 second period

Barometer 1009.0 mb
Air temperature 31.0 ° C
Visibility: greater than 10.8 NM

Date/timePositionNaut miles runAvg speedWind from/ knotsBaromVisibWave heightAir tempDewpointWater temp
2014-Aug-26 12:00N 26°24' W 085°12'284 9.0 060 / 201009.010.8 2.531.0
2014-Aug-25 04:33N 25°49' W 079°58'1313.5
2014-Aug-25 03:33N 26°02' W 080°04'5 4.8
2014-Aug-25 02:31N 26°05' W 080°07'0 0.0
2014-Aug-25 01:31N 26°05' W 080°07'0 0.0
2014-Aug-25 00:31N 26°05' W 080°07'0 0.0
2014-Aug-24 23:31N 26°05' W 080°07'0 0.0
2014-Aug-24 22:31N 26°05' W 080°07'0 0.0
2014-Aug-24 21:31N 26°05' W 080°07'0 0.0
2014-Aug-24 20:22N 26°05' W 080°07'0 0.0
2014-Aug-24 19:25N 26°05' W 080°07'0 0.0
2014-Aug-24 18:25N 26°05' W 080°07'0 0.0
2014-Aug-24 17:25N 26°05' W 080°07'0 0.0
2014-Aug-24 16:28N 26°05' W 080°07'0 0.0
2014-Aug-24 15:28N 26°05' W 080°07'0 0.0
2014-Aug-24 14:28N 26°05' W 080°07'0 0.0
2014-Aug-24 13:31N 26°05' W 080°07'0 0.0
2014-Aug-24 12:31N 26°05' W 080°07'0 0.0
2014-Aug-24 11:31N 26°05' W 080°07'0 0.0
2014-Aug-24 10:31N 26°05' W 080°07'0 0.0
2014-Aug-24 09:31N 26°05' W 080°07'0 0.0
2014-Aug-24 08:31N 26°05' W 080°07'0 0.0
2014-Aug-24 07:31N 26°05' W 080°07'0 0.0
2014-Aug-24 06:22N 26°05' W 080°07'0 0.0
2014-Aug-24 05:22N 26°05' W 080°07'0 0.0
2014-Aug-24 04:25N 26°05' W 080°07'0 0.0
2014-Aug-24 03:25N 26°05' W 080°07'0 0.0
2014-Aug-24 02:28N 26°05' W 080°07'0 0.0
2014-Aug-24 01:28N 26°05' W 080°07'0 0.0
2014-Aug-24 00:28N 26°05' W 080°07'0 0.0
2014-Aug-23 23:31N 26°05' W 080°07'0 0.0
2014-Aug-23 22:31N 26°05' W 080°07'0 0.0
2014-Aug-23 21:31N 26°05' W 080°07'0 0.0
2014-Aug-23 20:31N 26°05' W 080°07'0 0.0
2014-Aug-23 19:31N 26°05' W 080°07'6 0.4
2014-Aug-23 03:33N 26°09' W 080°02'1 1.5
2014-Aug-23 02:33N 26°07' W 080°02'5 4.8
2014-Aug-23 01:33N 26°05' W 079°57'4 4.3
2014-Aug-23 00:33N 26°03' W 079°53'4 4.0
2014-Aug-22 23:33N 26°02' W 079°48'4 3.7
2014-Aug-22 22:33N 26°01' W 079°44'2 1.6
2014-Aug-22 21:33N 26°01' W 079°43'1 1.2
2014-Aug-22 20:33N 26°03' W 079°43'1 0.9
2014-Aug-22 19:33N 26°03' W 079°43'4 4.3
2014-Aug-22 18:33N 25°59' W 079°42'5 5.4
2014-Aug-22 17:33N 25°54' W 079°42'1 0.9
2014-Aug-22 16:33N 25°55' W 079°42'1 1.1
2014-Aug-22 15:33N 25°56' W 079°42'1 1.2
2014-Aug-22 14:33N 25°57' W 079°42'1 1.2
2014-Aug-22 13:33N 25°58' W 079°42'1 1.2
2014-Aug-22 12:33N 25°59' W 079°42'1 1.2
2014-Aug-22 11:33N 26°00' W 079°41'1 1.2
2014-Aug-22 10:33N 26°02' W 079°41'1 1.0
2014-Aug-22 09:33N 26°03' W 079°42'1 1.0
2014-Aug-22 08:33N 26°04' W 079°42'2 2.1
2014-Aug-22 07:33N 26°02' W 079°43'4 3.5
2014-Aug-22 06:33N 25°58' W 079°42'1 1.4
2014-Aug-22 05:33N 25°59' W 079°42'2 1.7
2014-Aug-22 04:33N 26°01' W 079°41'2 1.6
2014-Aug-22 03:33N 26°03' W 079°42'1 0.6
2014-Aug-22 02:33N 26°03' W 079°42'6 6.1
2014-Aug-22 01:33N 25°57' W 079°41'1 1.4
2014-Aug-22 00:33N 25°59' W 079°41'2 2.3
2014-Aug-21 23:33N 26°01' W 079°41'3 2.9
2014-Aug-21 22:33N 26°02' W 079°44'8 7.9
2014-Aug-21 21:33N 26°02' W 079°53'1312.7
2014-Aug-21 20:34N 25°50' W 079°56'  
Track history (hours):
 
Tides and Currents Weather Stations Pressure Air Temp Water Temp Dewpoint Dewpoint Depression Visibility Wind Speed Wind Dir Waves Ship Positions

Seabulk Arctic

More information available from US FCC via Universal Licensing System and Coast Guard Vessel Documentation Center.

Last reported at 2014-Aug-26 12:00 UTC. Time now 2014-Aug-28 07:25 UTC.
Position N 26°24' W 085°12'.

Type: Tanker. MMSI: 366826000.

Wind from 060 at 20 knots

Waves 2.5 meters (8 feet), 8 second period

Barometer 1009.0 mb
Air temperature 31.0 ° C
Visibility: greater than 10.8 NM

Date/timePositionNaut miles runAvg speedWind from/ knotsBaromVisibWave heightAir tempDewpointWater temp
2014-Aug-26 12:00N 26°24' W 085°12'284 9.0 060 / 201009.010.8 2.531.0
2014-Aug-25 04:33N 25°49' W 079°58'1313.5
2014-Aug-25 03:33N 26°02' W 080°04'5 4.8
2014-Aug-25 02:31N 26°05' W 080°07'0 0.0
2014-Aug-25 01:31N 26°05' W 080°07'0 0.0
2014-Aug-25 00:31N 26°05' W 080°07'0 0.0
2014-Aug-24 23:31N 26°05' W 080°07'0 0.0
2014-Aug-24 22:31N 26°05' W 080°07'0 0.0
2014-Aug-24 21:31N 26°05' W 080°07'0 0.0
2014-Aug-24 20:22N 26°05' W 080°07'0 0.0
2014-Aug-24 19:25N 26°05' W 080°07'0 0.0
2014-Aug-24 18:25N 26°05' W 080°07'0 0.0
2014-Aug-24 17:25N 26°05' W 080°07'0 0.0
2014-Aug-24 16:28N 26°05' W 080°07'0 0.0
2014-Aug-24 15:28N 26°05' W 080°07'0 0.0
2014-Aug-24 14:28N 26°05' W 080°07'0 0.0
2014-Aug-24 13:31N 26°05' W 080°07'0 0.0
2014-Aug-24 12:31N 26°05' W 080°07'0 0.0
2014-Aug-24 11:31N 26°05' W 080°07'0 0.0
2014-Aug-24 10:31N 26°05' W 080°07'0 0.0
2014-Aug-24 09:31N 26°05' W 080°07'0 0.0
2014-Aug-24 08:31N 26°05' W 080°07'0 0.0
2014-Aug-24 07:31N 26°05' W 080°07'0 0.0
2014-Aug-24 06:22N 26°05' W 080°07'0 0.0
2014-Aug-24 05:22N 26°05' W 080°07'0 0.0
2014-Aug-24 04:25N 26°05' W 080°07'0 0.0
2014-Aug-24 03:25N 26°05' W 080°07'0 0.0
2014-Aug-24 02:28N 26°05' W 080°07'0 0.0
2014-Aug-24 01:28N 26°05' W 080°07'0 0.0
2014-Aug-24 00:28N 26°05' W 080°07'0 0.0
2014-Aug-23 23:31N 26°05' W 080°07'0 0.0
2014-Aug-23 22:31N 26°05' W 080°07'0 0.0
2014-Aug-23 21:31N 26°05' W 080°07'0 0.0
2014-Aug-23 20:31N 26°05' W 080°07'0 0.0
2014-Aug-23 19:31N 26°05' W 080°07'6 0.4
2014-Aug-23 03:33N 26°09' W 080°02'1 1.5
2014-Aug-23 02:33N 26°07' W 080°02'5 4.8
2014-Aug-23 01:33N 26°05' W 079°57'4 4.3
2014-Aug-23 00:33N 26°03' W 079°53'4 4.0
2014-Aug-22 23:33N 26°02' W 079°48'4 3.7
2014-Aug-22 22:33N 26°01' W 079°44'2 1.6
2014-Aug-22 21:33N 26°01' W 079°43'1 1.2
2014-Aug-22 20:33N 26°03' W 079°43'1 0.9
2014-Aug-22 19:33N 26°03' W 079°43'4 4.3
2014-Aug-22 18:33N 25°59' W 079°42'5 5.4
2014-Aug-22 17:33N 25°54' W 079°42'1 0.9
2014-Aug-22 16:33N 25°55' W 079°42'1 1.1
2014-Aug-22 15:33N 25°56' W 079°42'1 1.2
2014-Aug-22 14:33N 25°57' W 079°42'1 1.2
2014-Aug-22 13:33N 25°58' W 079°42'1 1.2
2014-Aug-22 12:33N 25°59' W 079°42'1 1.2
2014-Aug-22 11:33N 26°00' W 079°41'1 1.2
2014-Aug-22 10:33N 26°02' W 079°41'1 1.0
2014-Aug-22 09:33N 26°03' W 079°42'1 1.0
2014-Aug-22 08:33N 26°04' W 079°42'2 2.1
2014-Aug-22 07:33N 26°02' W 079°43'4 3.5
2014-Aug-22 06:33N 25°58' W 079°42'1 1.4
2014-Aug-22 05:33N 25°59' W 079°42'2 1.7
2014-Aug-22 04:33N 26°01' W 079°41'2 1.6
2014-Aug-22 03:33N 26°03' W 079°42'1 0.6
2014-Aug-22 02:33N 26°03' W 079°42'6 6.1
2014-Aug-22 01:33N 25°57' W 079°41'1 1.4
2014-Aug-22 00:33N 25°59' W 079°41'2 2.3
2014-Aug-21 23:33N 26°01' W 079°41'3 2.9
2014-Aug-21 22:33N 26°02' W 079°44'8 7.9
2014-Aug-21 21:33N 26°02' W 079°53'1312.7
2014-Aug-21 20:34N 25°50' W 079°56'  

Dump ship's entire track history